createdAt,value
2018-05-26T00:00:49.771Z,14.79
2018-05-26T00:03:18.105Z,14.83
2018-05-26T00:05:46.528Z,14.80
2018-05-26T00:08:14.979Z,14.78
2018-05-26T00:10:43.321Z,14.74
2018-05-26T00:13:11.711Z,14.71
2018-05-26T00:15:40.232Z,14.64
2018-05-26T00:18:08.558Z,14.58
2018-05-26T00:20:36.909Z,14.50
2018-05-26T00:23:06.023Z,14.51
2018-05-26T00:25:34.429Z,14.42
2018-05-26T00:28:02.695Z,14.34
2018-05-26T00:30:31.061Z,14.37
2018-05-26T00:32:59.496Z,14.38
2018-05-26T00:35:27.922Z,14.42
2018-05-26T00:37:56.347Z,14.40
2018-05-26T00:40:24.678Z,14.46
2018-05-26T00:42:52.983Z,14.42
2018-05-26T00:45:21.844Z,14.33
2018-05-26T00:47:50.162Z,14.30
2018-05-26T00:50:18.581Z,14.32
2018-05-26T00:52:46.938Z,14.32
2018-05-26T00:55:15.347Z,14.32
2018-05-26T00:57:43.778Z,14.31
2018-05-26T01:00:13.143Z,14.33
2018-05-26T01:02:41.528Z,14.29
2018-05-26T01:05:09.876Z,14.23
2018-05-26T01:07:39.129Z,14.27
2018-05-26T01:10:07.509Z,14.21
2018-05-26T01:12:35.858Z,14.21
2018-05-26T01:15:05.114Z,14.19
2018-05-26T01:17:33.450Z,14.20
2018-05-26T01:20:01.793Z,14.17
2018-05-26T01:22:30.289Z,14.11
2018-05-26T01:24:58.667Z,14.11
2018-05-26T01:27:26.977Z,14.13
2018-05-26T01:29:56.281Z,14.13
2018-05-26T01:32:24.601Z,14.13
2018-05-26T01:34:52.918Z,14.11
2018-05-26T01:37:21.319Z,14.11
2018-05-26T01:39:49.661Z,14.08
2018-05-26T01:42:18.008Z,14.06
2018-05-26T01:44:46.415Z,14.10
2018-05-26T01:47:14.764Z,14.08
2018-05-26T01:49:43.144Z,14.04
2018-05-26T01:52:13.347Z,13.99
2018-05-26T01:54:41.967Z,13.94
2018-05-26T01:57:10.366Z,13.92
2018-05-26T01:59:38.745Z,13.88
2018-05-26T02:02:07.378Z,13.92
2018-05-26T02:04:35.772Z,13.90
2018-05-26T02:07:04.898Z,13.86
2018-05-26T02:09:33.279Z,13.87
2018-05-26T02:12:01.613Z,13.79
2018-05-26T02:14:30.310Z,13.83
2018-05-26T02:16:58.633Z,13.81
2018-05-26T02:19:26.964Z,13.84
2018-05-26T02:21:55.319Z,13.84
2018-05-26T02:24:23.660Z,13.89
2018-05-26T02:26:51.981Z,13.94
2018-05-26T02:29:20.967Z,13.86
2018-05-26T02:31:49.293Z,13.92
2018-05-26T02:34:17.657Z,13.89
2018-05-26T02:36:46.850Z,13.96
2018-05-26T02:39:15.205Z,13.95
2018-05-26T02:41:43.589Z,14.00
2018-05-26T02:44:12.012Z,14.03
2018-05-26T02:46:40.391Z,14.01
2018-05-26T02:49:08.845Z,13.98
2018-05-26T02:51:37.886Z,13.97
2018-05-26T02:54:06.399Z,13.97
2018-05-26T02:56:34.776Z,13.97
2018-05-26T02:59:04.002Z,13.94
2018-05-26T03:01:32.348Z,13.92
2018-05-26T03:04:00.140Z,13.87
2018-05-26T03:06:34.226Z,13.83
2018-05-26T03:09:08.203Z,13.87
2018-05-26T03:11:42.384Z,13.89
2018-05-26T03:14:16.530Z,13.85
2018-05-26T03:16:47.748Z,13.83
2018-05-26T03:19:16.066Z,13.80
2018-05-26T03:21:44.462Z,13.77
2018-05-26T03:24:12.826Z,13.72
2018-05-26T03:26:41.293Z,13.67
2018-05-26T03:29:09.645Z,13.74
2018-05-26T03:31:38.248Z,13.73
2018-05-26T03:34:06.592Z,13.87
2018-05-26T03:36:34.913Z,13.90
2018-05-26T03:39:03.269Z,13.90
2018-05-26T03:41:31.601Z,13.93
2018-05-26T03:43:59.946Z,13.89
2018-05-26T03:46:28.316Z,14.01
2018-05-26T03:48:56.662Z,14.02
2018-05-26T03:51:24.952Z,13.99
2018-05-26T03:53:53.317Z,14.06
2018-05-26T03:56:34.525Z,14.04
2018-05-26T03:59:14.728Z,14.09
2018-05-26T04:01:43.063Z,14.06
2018-05-26T04:04:11.438Z,14.09
2018-05-26T04:06:39.800Z,14.09
2018-05-26T04:09:08.170Z,14.13
2018-05-26T04:11:36.508Z,14.22
2018-05-26T04:14:05.742Z,14.23
2018-05-26T04:16:34.076Z,14.24
2018-05-26T04:19:02.401Z,14.29
2018-05-26T04:21:30.781Z,14.28
2018-05-26T04:23:59.109Z,14.34
2018-05-26T04:26:27.500Z,14.30
2018-05-26T04:28:55.842Z,14.35
2018-05-26T04:31:24.199Z,14.39
2018-05-26T04:33:52.525Z,14.53
2018-05-26T04:36:20.982Z,14.51
2018-05-26T04:38:49.281Z,14.50
2018-05-26T04:41:17.579Z,14.60
2018-05-26T04:43:45.935Z,14.68
2018-05-26T04:46:14.262Z,14.69
2018-05-26T04:48:42.641Z,14.71
2018-05-26T04:51:11.048Z,14.69
2018-05-26T04:53:39.443Z,14.84
2018-05-26T04:56:07.776Z,14.88
2018-05-26T04:58:36.217Z,14.82
2018-05-26T05:01:04.588Z,14.86
2018-05-26T05:03:32.912Z,14.97
2018-05-26T05:06:02.605Z,14.94
2018-05-26T05:08:31.060Z,15.02
2018-05-26T05:10:59.372Z,15.05
2018-05-26T05:13:28.078Z,15.16
2018-05-26T05:15:56.381Z,15.20
2018-05-26T05:18:24.941Z,15.30
2018-05-26T05:20:53.295Z,15.41
2018-05-26T05:23:21.618Z,15.39
2018-05-26T05:25:50.123Z,15.45
2018-05-26T05:28:18.749Z,15.52
2018-05-26T05:30:47.203Z,15.62
2018-05-26T05:33:15.708Z,15.89
2018-05-26T05:35:44.492Z,16.03
2018-05-26T05:38:12.876Z,16.17
2018-05-26T05:40:41.306Z,16.17
2018-05-26T05:43:09.766Z,16.22
2018-05-26T05:45:39.044Z,16.46
2018-05-26T05:48:07.409Z,16.51
2018-05-26T05:50:35.864Z,16.53
2018-05-26T05:53:04.210Z,16.62
2018-05-26T05:55:32.547Z,16.78
2018-05-26T05:58:01.285Z,16.92
2018-05-26T06:00:29.621Z,17.07
2018-05-26T06:02:57.995Z,17.11
2018-05-26T06:05:26.374Z,17.29
2018-05-26T06:07:54.714Z,17.43
2018-05-26T06:10:23.094Z,17.47
2018-05-26T06:12:51.730Z,17.59
2018-05-26T06:15:20.064Z,17.76
2018-05-26T06:17:48.461Z,17.78
2018-05-26T06:20:16.985Z,17.87
2018-05-26T06:22:45.338Z,17.93
2018-05-26T06:25:13.708Z,18.09
2018-05-26T06:27:42.599Z,18.09
2018-05-26T06:30:10.985Z,18.07
2018-05-26T06:32:39.397Z,18.12
2018-05-26T06:35:07.875Z,18.13
2018-05-26T06:37:36.236Z,18.30
2018-05-26T06:40:04.633Z,18.44
2018-05-26T06:42:33.540Z,18.44
2018-05-26T06:45:01.860Z,18.58
2018-05-26T06:47:30.299Z,18.48
2018-05-26T06:49:59.151Z,18.36
2018-05-26T06:52:27.466Z,18.26
2018-05-26T06:54:55.843Z,18.51
2018-05-26T06:57:24.183Z,18.66
2018-05-26T06:59:52.522Z,18.70
2018-05-26T07:02:20.857Z,18.73
2018-05-26T07:04:49.239Z,18.93
2018-05-26T07:07:17.619Z,19.27
2018-05-26T07:09:45.984Z,19.39
2018-05-26T07:12:14.460Z,19.61
2018-05-26T07:14:42.845Z,19.58
2018-05-26T07:17:11.249Z,19.75
2018-05-26T07:19:39.938Z,19.89
2018-05-26T07:22:08.306Z,20.01
2018-05-26T07:24:36.715Z,19.22
2018-05-26T07:27:05.034Z,19.05
2018-05-26T07:29:33.375Z,19.08
2018-05-26T07:32:01.697Z,18.95
2018-05-26T07:34:31.278Z,18.76
2018-05-26T07:37:00.221Z,19.00
2018-05-26T07:39:28.565Z,19.18
2018-05-26T07:41:56.924Z,18.67
2018-05-26T07:44:25.264Z,18.78
2018-05-26T07:46:53.591Z,19.02
2018-05-26T07:49:21.962Z,19.04
2018-05-26T07:51:50.370Z,18.76
2018-05-26T07:54:18.699Z,18.73
2018-05-26T07:56:47.082Z,18.88
2018-05-26T07:59:15.416Z,18.58
2018-05-26T08:01:43.799Z,18.60
2018-05-26T08:04:12.379Z,18.81
2018-05-26T08:06:40.927Z,19.21
2018-05-26T08:09:09.521Z,18.43
2018-05-26T08:11:38.684Z,18.63
2018-05-26T08:14:07.019Z,19.17
2018-05-26T08:16:35.357Z,19.30
2018-05-26T08:19:03.893Z,19.44
2018-05-26T08:21:32.666Z,19.69
2018-05-26T08:24:00.974Z,19.64
2018-05-26T08:26:30.159Z,19.83
2018-05-26T08:28:58.566Z,19.87
2018-05-26T08:31:26.859Z,19.75
2018-05-26T08:33:55.281Z,19.59
2018-05-26T08:36:23.675Z,19.40
2018-05-26T08:38:51.992Z,19.36
2018-05-26T08:41:20.374Z,18.63
2018-05-26T08:43:48.733Z,18.65
2018-05-26T08:46:17.276Z,18.78
2018-05-26T08:48:45.816Z,18.57
2018-05-26T08:51:14.154Z,18.82
2018-05-26T08:53:42.537Z,19.05
2018-05-26T08:56:12.161Z,19.06
2018-05-26T08:58:40.540Z,19.39
2018-05-26T09:01:08.899Z,19.79
2018-05-26T09:03:37.580Z,19.74
2018-05-26T09:06:05.905Z,19.88
2018-05-26T09:08:34.283Z,20.27
2018-05-26T09:11:02.601Z,20.67
2018-05-26T09:13:30.927Z,20.93
2018-05-26T09:15:59.225Z,21.17
2018-05-26T09:18:27.847Z,21.28
2018-05-26T09:20:56.146Z,21.08
2018-05-26T09:23:24.491Z,21.06
2018-05-26T09:25:52.857Z,20.57
2018-05-26T09:28:21.228Z,20.60
2018-05-26T09:30:49.645Z,20.27
2018-05-26T09:33:18.787Z,20.58
2018-05-26T09:35:47.125Z,20.66
2018-05-26T09:38:15.465Z,20.95
2018-05-26T09:40:44.566Z,21.37
2018-05-26T09:43:12.939Z,21.55
2018-05-26T09:45:41.254Z,22.50
2018-05-26T09:48:09.761Z,23.43
2018-05-26T09:50:38.940Z,22.61
2018-05-26T09:53:07.265Z,22.54
2018-05-26T09:55:36.181Z,23.00
2018-05-26T09:58:04.498Z,23.60
2018-05-26T10:00:32.818Z,23.96
2018-05-26T10:03:01.915Z,24.89
2018-05-26T10:05:30.220Z,25.28
2018-05-26T10:07:58.519Z,25.30
2018-05-26T10:10:26.873Z,25.07
2018-05-26T10:12:55.183Z,23.76
2018-05-26T10:15:23.511Z,23.47
2018-05-26T10:17:52.342Z,22.95
2018-05-26T10:20:21.357Z,21.77
2018-05-26T10:22:49.697Z,22.27
2018-05-26T10:25:19.037Z,22.58
2018-05-26T10:27:47.555Z,22.45
2018-05-26T10:30:15.922Z,22.69
2018-05-26T10:32:44.324Z,22.79
2018-05-26T10:35:12.652Z,23.38
2018-05-26T10:37:40.994Z,24.81
2018-05-26T10:40:09.414Z,25.28
2018-05-26T10:42:37.796Z,23.71
2018-05-26T10:45:06.101Z,25.11
2018-05-26T10:47:34.650Z,25.26
2018-05-26T10:50:03.012Z,25.72
2018-05-26T10:52:31.380Z,25.72
2018-05-26T10:54:59.960Z,25.57
2018-05-26T10:57:28.314Z,25.37
2018-05-26T10:59:56.647Z,24.89
2018-05-26T11:02:25.590Z,24.60
2018-05-26T11:04:53.912Z,24.98
2018-05-26T11:07:22.248Z,24.42
2018-05-26T11:09:50.657Z,23.78
2018-05-26T11:12:19.001Z,24.02
2018-05-26T11:14:47.340Z,23.61
2018-05-26T11:17:15.848Z,23.76
2018-05-26T11:19:44.197Z,24.90
2018-05-26T11:22:12.569Z,23.99
2018-05-26T11:24:43.031Z,24.32
2018-05-26T11:27:11.335Z,25.24
2018-05-26T11:29:39.819Z,25.95
2018-05-26T11:32:08.368Z,25.83
2018-05-26T11:34:36.688Z,26.16
2018-05-26T11:37:04.994Z,25.61
2018-05-26T11:39:33.711Z,25.51
2018-05-26T11:42:02.050Z,25.89
2018-05-26T11:44:30.388Z,25.86
2018-05-26T11:46:59.382Z,25.64
2018-05-26T11:49:27.782Z,26.42
2018-05-26T11:51:56.065Z,27.08
2018-05-26T11:54:24.651Z,26.17
2018-05-26T11:56:52.974Z,26.31
2018-05-26T11:59:21.361Z,26.75
2018-05-26T12:01:49.844Z,27.00
2018-05-26T12:04:18.193Z,26.54
2018-05-26T12:06:46.596Z,26.91
2018-05-26T12:09:15.180Z,27.46
2018-05-26T12:11:43.530Z,27.65
2018-05-26T12:14:11.917Z,27.70
2018-05-26T12:16:41.109Z,26.94
2018-05-26T12:19:09.438Z,24.70
2018-05-26T12:21:37.763Z,25.84
2018-05-26T12:24:06.189Z,26.50
2018-05-26T12:26:34.518Z,26.15
2018-05-26T12:29:02.868Z,24.57
2018-05-26T12:31:32.047Z,24.02
2018-05-26T12:34:00.416Z,24.20
2018-05-26T12:36:28.681Z,23.83
2018-05-26T12:38:57.402Z,24.68
2018-05-26T12:41:25.808Z,25.92
2018-05-26T12:43:54.136Z,26.59
2018-05-26T12:46:23.084Z,27.50
2018-05-26T12:48:51.385Z,28.06
2018-05-26T12:51:19.736Z,28.03
2018-05-26T12:53:48.114Z,27.27
2018-05-26T12:56:16.503Z,27.47
2018-05-26T12:58:44.824Z,27.50
2018-05-26T13:01:13.254Z,27.12
2018-05-26T13:03:41.615Z,27.39
2018-05-26T13:06:10.043Z,28.23
2018-05-26T13:08:39.102Z,28.06
2018-05-26T13:11:07.430Z,27.98
2018-05-26T13:13:35.763Z,27.78
2018-05-26T13:16:04.090Z,27.74
2018-05-26T13:18:32.408Z,27.73
2018-05-26T13:21:00.719Z,27.09
2018-05-26T13:23:29.064Z,27.34
2018-05-26T13:25:58.334Z,28.09
2018-05-26T13:28:26.677Z,28.56
2018-05-26T13:30:55.085Z,28.75
2018-05-26T13:33:23.417Z,27.85
2018-05-26T13:35:51.854Z,28.03
2018-05-26T13:38:20.377Z,28.68
2018-05-26T13:40:48.793Z,29.49
2018-05-26T13:43:17.148Z,28.99
2018-05-26T13:45:46.360Z,28.03
2018-05-26T13:48:14.755Z,28.96
2018-05-26T13:50:43.137Z,29.45
2018-05-26T13:53:11.709Z,29.31
2018-05-26T13:55:39.957Z,28.91
2018-05-26T13:58:09.236Z,28.97
2018-05-26T14:00:38.557Z,28.17
2018-05-26T14:03:06.899Z,28.79
2018-05-26T14:05:35.214Z,28.16
2018-05-26T14:08:04.413Z,27.33
2018-05-26T14:10:32.698Z,27.17
2018-05-26T14:13:01.009Z,27.56
2018-05-26T14:15:29.435Z,28.08
2018-05-26T14:17:57.751Z,27.99
2018-05-26T14:20:26.085Z,28.33
2018-05-26T14:22:54.437Z,28.93
2018-05-26T14:25:23.011Z,29.44
2018-05-26T14:27:51.338Z,28.92
2018-05-26T14:30:20.109Z,29.04
2018-05-26T14:32:48.458Z,29.03
2018-05-26T14:35:16.826Z,29.69
2018-05-26T14:37:45.185Z,29.94
2018-05-26T14:40:13.531Z,29.77
2018-05-26T14:42:41.915Z,29.86
2018-05-26T14:45:11.125Z,29.43
2018-05-26T14:47:39.482Z,29.53
2018-05-26T14:50:08.063Z,29.79
2018-05-26T14:52:36.387Z,29.75
2018-05-26T14:55:04.737Z,29.79
2018-05-26T14:57:33.965Z,29.11
2018-05-26T15:00:02.301Z,28.96
2018-05-26T15:02:30.687Z,28.88
2018-05-26T15:05:01.536Z,29.37
2018-05-26T15:07:30.864Z,29.56
2018-05-26T15:09:59.197Z,29.29
2018-05-26T15:12:30.834Z,29.44
2018-05-26T15:14:59.324Z,29.20
2018-05-26T15:17:28.132Z,29.03
2018-05-26T15:19:56.463Z,29.39
2018-05-26T15:22:24.793Z,28.92
2018-05-26T15:24:53.123Z,28.82
2018-05-26T15:27:21.444Z,27.32
2018-05-26T15:36:52.838Z,28.96
2018-05-26T15:39:23.163Z,29.21
2018-05-26T15:42:04.139Z,28.91
2018-05-26T15:44:34.481Z,29.16
2018-05-26T15:47:10.711Z,29.26
2018-05-26T15:49:48.952Z,29.29
2018-05-26T15:52:28.677Z,28.71
2018-05-26T16:08:54.072Z,28.60
2018-05-26T16:17:33.241Z,27.85
